Observations for GLASGOW AIRPORT, United Kingdom (EGPF)

EGPF 240850Z AUTO 06012KT 9999 OVC006/// //////CB 13/12 Q1018   
EGPF 240820Z AUTO 07012G23KT 040V100 9999 OVC007/// //////CB 13/12 Q1018
EGPF 240750Z AUTO 07011KT 9999 OVC007/// //////CB 13/12 Q1018   
EGPF 240720Z AUTO 06011KT 9999 OVC008/// //////CB 13/12 Q1018   
EGPF 240650Z AUTO 06009KT 9999 OVC008/// //////CB 13/12 Q1018   
EGPF 240620Z AUTO 06011G22KT 9999 OVC009/// //////CB 13/12 Q1018
EGPF 240550Z AUTO 07011KT 9999 OVC010/// //////CB 13/12 Q1018   
EGPF 240520Z AUTO 07010KT 9999 OVC012 13/12 Q1018   
EGPF 240450Z AUTO 06010KT 9999 BKN013/// OVC036/// //////CB 13/12 Q1018 
EGPF 240420Z AUTO 06008KT 9999 -RA BKN011/// //////CB 13/12 Q1019   
EGPF 240350Z AUTO 07008KT 030V140 9999 -RA BKN011/// BKN025/// //////TCU 13/12 Q1019
EGPF 240320Z AUTO 06011KT 9000 -RA BKN011/// BKN024/// BKN043/// //////TCU 13/12 Q1019  
EGPF 240250Z AUTO 06011KT 9999 -RA BKN010/// OVC014/// //////TCU 13/12 Q1020
EGPF 240220Z AUTO 06010KT 9999 -RA OVC011/// //////TCU 13/12 Q1020  
EGPF 240150Z AUTO 06011KT 9999 -RA BKN014/// OVC019/// //////TCU 13/11 Q1020
EGPF 240120Z AUTO 06012KT 9999 -RA BKN015 13/11 Q1020   
EGPF 240050Z AUTO 06014KT 9999 FEW017/// //////CB 13/10 Q1020   
EGPF 240020Z AUTO 07014KT 9999 //////TCU 13/10 Q1021
EGPF 232350Z AUTO 07013KT 9999 //////TCU 13/10 Q1021
EGPF 232320Z AUTO 07013KT 9999 FEW017 13/10 Q1021   
EGPF 232250Z AUTO 07015KT 9999 NCD 13/10 Q1021  
EGPF 232220Z AUTO 07015KT 9999 NCD 14/10 Q1021  
EGPF 232150Z AUTO 07013KT 9999 NCD 14/10 Q1021  
EGPF 232120Z AUTO 07016KT 9999 -RA NCD 14/10 Q1021  
EGPF 232050Z AUTO 06013KT 030V100 9999 NCD 15/08 Q1020  
EGPF 232020Z AUTO 06012KT 9999 NCD 15/08 Q1020  
EGPF 231950Z AUTO 06014KT 9999 NCD 16/07 Q1020  
EGPF 231920Z AUTO 06013KT 9999 NCD 17/08 Q1020  
EGPF 231850Z AUTO 08016KT 9999 NCD 18/06 Q1020  
EGPF 231820Z AUTO 08016KT 9999 NCD 19/08 Q1020  
EGPF 231750Z AUTO 08013KT 9999 NCD 20/08 Q1019  
EGPF 231720Z AUTO 10014KT 9999 NCD 20/07 Q1019  
EGPF 231650Z AUTO 10013KT 9999 NCD 21/07 Q1019  
EGPF 231620Z AUTO 08011KT 9999 SCT044 21/12 Q1019   
EGPF 231550Z AUTO 07014KT 9999 FEW048 21/13 Q1019   
EGPF 231520Z AUTO 06015KT 9999 NCD 22/13 Q1019  
EGPF 231450Z AUTO 06016KT 9999 NCD 22/13 Q1019  
EGPF 231420Z AUTO 07014KT 9999 NCD 21/13 Q1019  
EGPF 231350Z AUTO 05016KT 9999 NCD 21/14 Q1019  
EGPF 231320Z AUTO 07014KT 9999 NCD 21/13 Q1019  
EGPF 231250Z AUTO 05013KT 9999 FEW034 21/14 Q1019   
EGPF 231220Z AUTO 05011KT 9999 NCD 20/14 Q1020  
EGPF 231150Z AUTO 04011KT 9999 NCD 20/14 Q1020  
EGPF 231120Z AUTO 06010KT 9999 NCD 20/14 Q1020  
EGPF 231050Z AUTO 05009KT 9999 NCD 19/14 Q1020  
EGPF 231020Z AUTO 05010KT 030V090 9999 NCD 18/13 Q1020  
EGPF 230950Z AUTO 06009KT 030V100 9999 NCD 17/13 Q1021  
EGPF 230920Z AUTO 06008KT 9999 NCD 16/13 Q1021  
EGPF 230850Z AUTO 06008KT 9999 NCD 15/12 Q1021